Pagina principale
METAR-TAF:

METAR-TAF

Aeroporti :

Aeroporto di Magadino

Locarno, Svizzera

latitudine: 46-09-55N, longitudine: 8-52-40E, altezza: 198 m

Osservazione

Il bollettino è stato emesso 1 ora e 0 minuti fa, alle 16:20 UTC
Vento 5 kt da ovest, variando fra ovest/sud-ovest e nord
Temperature 23°C
Umidità 50%
Pressione 1013 hPa
Visibilità 10 km o più

METAR: LSZL 131620Z AUTO 28005KT 250V350 9999NDV NCD 23/12 Q1013 RMK

Ora: 19:20 (17:20 UTC)

Previsione

Il bollettino è stato emesso 5 ore e 55 minuti fa, alle 11:25 UTC
Previsione valida dal 13 alle 12 UTC al 13 alle 21 UTC
Vento 5 kt da ovest/sud-ovest
Visibilità 10 km o più
Poco nuvoloso ad un'altezza di 4500 ft
Temporaneamente
dal 13 alle 15 UTC al 13 alle 21 UTC
Visibilità 10 km o più
nessuna nube inferiore a 1500 m e nessun cumulonembo

TAF: LSZL 131125Z 1312/1321 25005KT 9999 FEW045 TEMPO 1315/1321 CAVOK

Osservazioni e previsioni meteorologiche di più di 4000 aeroporti (messaggi METAR e TAF).

Le stazioni disponibili sono rappresentate dai dischi gialli e rossi sulla carta.

Puntare il mouse per vedere il nome della stazione.

Clicca sopra per visualizzare le osservazioni e previsioni meteorologiche.

Per cambiare la mappa : fare clic sui pulsanti verdi con una croce nera per ingrandire, il pulsante verde con un trattino per diminuire, o sulla freccia verde per le mappe adiacenti.


METAR-TAF: